Airfield :
LOGIN :

Register | Disclaimer

   EN    FR    IT 

 










Legend :    VFR   Marginal VFR   IFR   Intensive IFR   Very Intensive IFR
Visi :
Ceiling :
>= 8 km
>= 3000ft
5 to 8 km
1000 to 3000 ft
1500m to 5 km
500 to 1000 ft
800 to 1500m
200 to 500 ft
< 800m
< 200 ft
Symbols :   Thunderstorms  Fog  Heavy snow  Heavy precipitations  Wind > 20 kt
SIGMETs :     Misc.  Thunderstorms  Icing  Turbulence  Mountain Waves  Volcanic Ashes






- Airport Elevation : 3006 ft
- IATA code : LEN


LELN - Leon

CURRENT METAR :
  • 081230Z AUTO 10006KT 060V170 9999 FEW016 BKN031 15/10 Q1023

EXPIRED METARs :
  • 081200Z AUTO 14005KT 100V170 9999 FEW015 OVC030 14/11 Q1023
  • 081130Z AUTO 14004KT 100V170 9999 FEW012 OVC026 13/10 Q1023
  • 081100Z AUTO VRB02KT 9999 BKN010 OVC017 13/11 Q1024
  • 081030Z AUTO 11004KT 070V140 9999 BKN008 OVC013 13/11 Q1024
  • 081000Z AUTO 10003KT 030V160 9999 OVC008 12/10 Q1024

TAF TAF LELN
Valid from the 08 at 12:00 until the 08 at 21:00 UTC


081100Z 0812/0821 20007KT 9999 SCT020
PROB30
TEMPO 0812/0814 BKN012
BECMG 0818/0820 VRB05KT



MET'MAP, your aeronautical weather chart ! - Copyright ORBIFLY December 2007 - Disclaimer

ORBIFLY MET'MAP TEAM :

Programming & Development : Alexandra Zaïnal
Concept & original design : Baudouin d'Aumeries
Assistance for programming : Marc-Olivier Méhu
Technical & hardware support : Manuel Goepfert

Contact : metmap@orbifly.com




SOURCES & CREDITS :

   NOAA